sensor_id;sensor_type;location;lat;lon;timestamp;P1;durP1;ratioP1;P2;durP2;ratioP2
23470;SDS011;11908;50.806;4.424;2023-12-22T00:02:07;24.77;;;3.55;;
23470;SDS011;11908;50.806;4.424;2023-12-22T00:04:33;25.48;;;3.58;;
23470;SDS011;11908;50.806;4.424;2023-12-22T00:06:58;14.88;;;3.33;;
23470;SDS011;11908;50.806;4.424;2023-12-22T00:09:24;18.95;;;3.40;;
23470;SDS011;11908;50.806;4.424;2023-12-22T00:11:50;15.73;;;3.05;;
23470;SDS011;11908;50.806;4.424;2023-12-22T00:14:15;18.10;;;3.55;;
23470;SDS011;11908;50.806;4.424;2023-12-22T00:16:41;14.48;;;3.17;;
23470;SDS011;11908;50.806;4.424;2023-12-22T00:19:07;16.25;;;3.00;;
23470;SDS011;11908;50.806;4.424;2023-12-22T00:21:33;14.00;;;2.78;;
23470;SDS011;11908;50.806;4.424;2023-12-22T00:23:59;14.30;;;3.10;;
23470;SDS011;11908;50.806;4.424;2023-12-22T00:26:25;10.35;;;2.38;;
23470;SDS011;11908;50.806;4.424;2023-12-22T00:28:50;12.70;;;2.80;;
23470;SDS011;11908;50.806;4.424;2023-12-22T00:31:16;11.40;;;2.25;;
23470;SDS011;11908;50.806;4.424;2023-12-22T00:33:42;14.00;;;1.98;;
23470;SDS011;11908;50.806;4.424;2023-12-22T00:36:08;8.32;;;1.90;;
23470;SDS011;11908;50.806;4.424;2023-12-22T00:38:34;9.70;;;1.88;;
23470;SDS011;11908;50.806;4.424;2023-12-22T00:41:00;16.63;;;2.65;;
23470;SDS011;11908;50.806;4.424;2023-12-22T00:43:25;14.57;;;3.17;;
23470;SDS011;11908;50.806;4.424;2023-12-22T00:45:51;16.98;;;3.20;;
23470;SDS011;11908;50.806;4.424;2023-12-22T00:48:17;10.68;;;2.88;;
23470;SDS011;11908;50.806;4.424;2023-12-22T00:50:43;14.85;;;2.70;;
23470;SDS011;11908;50.806;4.424;2023-12-22T00:53:09;14.82;;;3.35;;
23470;SDS011;11908;50.806;4.424;2023-12-22T00:55:35;16.23;;;2.90;;
23470;SDS011;11908;50.806;4.424;2023-12-22T00:58:00;16.00;;;3.00;;
23470;SDS011;11908;50.806;4.424;2023-12-22T01:00:26;15.15;;;2.97;;
23470;SDS011;11908;50.806;4.424;2023-12-22T01:02:52;18.70;;;3.13;;
23470;SDS011;11908;50.806;4.424;2023-12-22T01:05:17;16.88;;;2.90;;
23470;SDS011;11908;50.806;4.424;2023-12-22T01:07:43;22.20;;;4.63;;
23470;SDS011;11908;50.806;4.424;2023-12-22T01:10:09;20.52;;;3.25;;
23470;SDS011;11908;50.806;4.424;2023-12-22T01:12:35;17.20;;;3.63;;
23470;SDS011;11908;50.806;4.424;2023-12-22T01:15:00;26.40;;;4.55;;
23470;SDS011;11908;50.806;4.424;2023-12-22T01:17:26;26.10;;;4.18;;
23470;SDS011;11908;50.806;4.424;2023-12-22T01:19:52;18.98;;;4.03;;
23470;SDS011;11908;50.806;4.424;2023-12-22T01:22:17;20.40;;;4.15;;
23470;SDS011;11908;50.806;4.424;2023-12-22T01:24:43;26.98;;;4.22;;
23470;SDS011;11908;50.806;4.424;2023-12-22T01:27:10;17.60;;;3.38;;
23470;SDS011;11908;50.806;4.424;2023-12-22T01:29:36;16.42;;;3.45;;
23470;SDS011;11908;50.806;4.424;2023-12-22T01:32:02;20.70;;;4.18;;
23470;SDS011;11908;50.806;4.424;2023-12-22T01:34:28;17.00;;;3.92;;
23470;SDS011;11908;50.806;4.424;2023-12-22T01:36:54;24.20;;;4.05;;
23470;SDS011;11908;50.806;4.424;2023-12-22T01:39:19;21.15;;;3.95;;
23470;SDS011;11908;50.806;4.424;2023-12-22T01:41:45;30.10;;;4.38;;
23470;SDS011;11908;50.806;4.424;2023-12-22T01:44:11;20.65;;;4.30;;
23470;SDS011;11908;50.806;4.424;2023-12-22T01:46:36;19.55;;;3.83;;
23470;SDS011;11908;50.806;4.424;2023-12-22T01:49:03;18.15;;;3.35;;
23470;SDS011;11908;50.806;4.424;2023-12-22T01:51:31;25.95;;;4.50;;
23470;SDS011;11908;50.806;4.424;2023-12-22T01:53:57;19.75;;;4.32;;
23470;SDS011;11908;50.806;4.424;2023-12-22T01:56:24;20.00;;;3.45;;
23470;SDS011;11908;50.806;4.424;2023-12-22T01:58:52;14.98;;;3.60;;
23470;SDS011;11908;50.806;4.424;2023-12-22T02:01:20;22.80;;;3.70;;
23470;SDS011;11908;50.806;4.424;2023-12-22T02:03:48;22.13;;;4.10;;
23470;SDS011;11908;50.806;4.424;2023-12-22T02:06:17;15.98;;;3.88;;
23470;SDS011;11908;50.806;4.424;2023-12-22T02:08:45;18.00;;;3.70;;
23470;SDS011;11908;50.806;4.424;2023-12-22T02:11:12;18.73;;;4.15;;
23470;SDS011;11908;50.806;4.424;2023-12-22T02:13:39;24.30;;;4.47;;
23470;SDS011;11908;50.806;4.424;2023-12-22T02:16:07;22.33;;;4.55;;
23470;SDS011;11908;50.806;4.424;2023-12-22T02:18:43;27.75;;;5.25;;
23470;SDS011;11908;50.806;4.424;2023-12-22T02:21:13;20.95;;;4.10;;
23470;SDS011;11908;50.806;4.424;2023-12-22T02:23:39;21.00;;;4.43;;
23470;SDS011;11908;50.806;4.424;2023-12-22T02:26:06;18.00;;;3.75;;
23470;SDS011;11908;50.806;4.424;2023-12-22T02:28:37;30.17;;;4.75;;
23470;SDS011;11908;50.806;4.424;2023-12-22T02:31:09;25.88;;;4.22;;
23470;SDS011;11908;50.806;4.424;2023-12-22T02:33:57;18.92;;;3.63;;
23470;SDS011;11908;50.806;4.424;2023-12-22T02:36:25;22.83;;;3.90;;
23470;SDS011;11908;50.806;4.424;2023-12-22T02:38:52;16.73;;;3.25;;
23470;SDS011;11908;50.806;4.424;2023-12-22T02:41:19;24.55;;;4.05;;
23470;SDS011;11908;50.806;4.424;2023-12-22T02:43:46;17.08;;;3.60;;
23470;SDS011;11908;50.806;4.424;2023-12-22T02:46:15;15.20;;;2.85;;
23470;SDS011;11908;50.806;4.424;2023-12-22T02:48:41;16.52;;;4.05;;
23470;SDS011;11908;50.806;4.424;2023-12-22T02:51:07;14.55;;;3.22;;
23470;SDS011;11908;50.806;4.424;2023-12-22T02:53:33;12.80;;;2.55;;
23470;SDS011;11908;50.806;4.424;2023-12-22T02:55:58;12.32;;;2.83;;
23470;SDS011;11908;50.806;4.424;2023-12-22T02:58:24;11.20;;;2.40;;
23470;SDS011;11908;50.806;4.424;2023-12-22T03:00:49;12.20;;;3.22;;
23470;SDS011;11908;50.806;4.424;2023-12-22T03:03:15;12.45;;;2.45;;
23470;SDS011;11908;50.806;4.424;2023-12-22T03:05:41;12.60;;;2.30;;
23470;SDS011;11908;50.806;4.424;2023-12-22T03:08:07;9.32;;;2.63;;
23470;SDS011;11908;50.806;4.424;2023-12-22T03:10:32;14.20;;;2.45;;
23470;SDS011;11908;50.806;4.424;2023-12-22T03:12:58;12.70;;;2.67;;
23470;SDS011;11908;50.806;4.424;2023-12-22T03:15:24;12.60;;;2.95;;
23470;SDS011;11908;50.806;4.424;2023-12-22T03:17:50;13.93;;;2.53;;
23470;SDS011;11908;50.806;4.424;2023-12-22T03:20:16;11.45;;;2.33;;
23470;SDS011;11908;50.806;4.424;2023-12-22T03:22:42;17.75;;;3.13;;
23470;SDS011;11908;50.806;4.424;2023-12-22T03:25:08;15.70;;;3.05;;
23470;SDS011;11908;50.806;4.424;2023-12-22T03:27:34;17.13;;;3.72;;
23470;SDS011;11908;50.806;4.424;2023-12-22T03:29:59;20.13;;;3.60;;
23470;SDS011;11908;50.806;4.424;2023-12-22T03:32:26;19.38;;;3.65;;
23470;SDS011;11908;50.806;4.424;2023-12-22T03:34:52;15.80;;;3.53;;
23470;SDS011;11908;50.806;4.424;2023-12-22T03:37:18;20.02;;;3.75;;
23470;SDS011;11908;50.806;4.424;2023-12-22T03:39:43;23.55;;;3.85;;
23470;SDS011;11908;50.806;4.424;2023-12-22T03:42:09;18.45;;;3.60;;
23470;SDS011;11908;50.806;4.424;2023-12-22T03:44:35;19.25;;;5.05;;
23470;SDS011;11908;50.806;4.424;2023-12-22T03:47:00;22.05;;;4.05;;
23470;SDS011;11908;50.806;4.424;2023-12-22T03:49:26;19.73;;;3.75;;
23470;SDS011;11908;50.806;4.424;2023-12-22T03:51:52;20.90;;;3.58;;
23470;SDS011;11908;50.806;4.424;2023-12-22T03:54:17;20.00;;;3.85;;
23470;SDS011;11908;50.806;4.424;2023-12-22T03:56:43;20.92;;;3.97;;
23470;SDS011;11908;50.806;4.424;2023-12-22T03:59:09;16.38;;;3.17;;
23470;SDS011;11908;50.806;4.424;2023-12-22T04:01:35;13.02;;;2.65;;
23470;SDS011;11908;50.806;4.424;2023-12-22T04:04:00;16.92;;;3.08;;
23470;SDS011;11908;50.806;4.424;2023-12-22T04:06:26;14.77;;;2.88;;
23470;SDS011;11908;50.806;4.424;2023-12-22T04:08:52;13.88;;;3.22;;
23470;SDS011;11908;50.806;4.424;2023-12-22T04:11:17;18.02;;;3.13;;
23470;SDS011;11908;50.806;4.424;2023-12-22T04:13:43;13.98;;;2.92;;
23470;SDS011;11908;50.806;4.424;2023-12-22T04:16:09;14.60;;;3.13;;
23470;SDS011;11908;50.806;4.424;2023-12-22T04:18:35;22.73;;;4.47;;
23470;SDS011;11908;50.806;4.424;2023-12-22T04:21:00;17.55;;;3.55;;
23470;SDS011;11908;50.806;4.424;2023-12-22T04:23:26;19.73;;;3.63;;
23470;SDS011;11908;50.806;4.424;2023-12-22T04:25:52;22.35;;;3.85;;
23470;SDS011;11908;50.806;4.424;2023-12-22T04:28:18;21.30;;;4.75;;
23470;SDS011;11908;50.806;4.424;2023-12-22T04:30:43;23.08;;;4.65;;
23470;SDS011;11908;50.806;4.424;2023-12-22T04:33:09;23.33;;;4.07;;
23470;SDS011;11908;50.806;4.424;2023-12-22T04:35:35;23.25;;;4.68;;
23470;SDS011;11908;50.806;4.424;2023-12-22T04:38:00;24.67;;;3.95;;
23470;SDS011;11908;50.806;4.424;2023-12-22T04:40:26;23.98;;;4.43;;
23470;SDS011;11908;50.806;4.424;2023-12-22T04:42:53;23.25;;;4.30;;
23470;SDS011;11908;50.806;4.424;2023-12-22T04:45:18;21.90;;;3.95;;
23470;SDS011;11908;50.806;4.424;2023-12-22T04:47:44;22.48;;;4.18;;
23470;SDS011;11908;50.806;4.424;2023-12-22T04:50:10;26.67;;;5.55;;
23470;SDS011;11908;50.806;4.424;2023-12-22T04:52:35;28.60;;;4.85;;
23470;SDS011;11908;50.806;4.424;2023-12-22T04:55:01;26.48;;;4.45;;
23470;SDS011;11908;50.806;4.424;2023-12-22T04:57:27;25.42;;;4.80;;
23470;SDS011;11908;50.806;4.424;2023-12-22T04:59:52;25.10;;;4.43;;
23470;SDS011;11908;50.806;4.424;2023-12-22T05:02:18;25.15;;;4.28;;
23470;SDS011;11908;50.806;4.424;2023-12-22T05:04:44;35.30;;;5.95;;
23470;SDS011;11908;50.806;4.424;2023-12-22T05:07:09;28.60;;;4.38;;
23470;SDS011;11908;50.806;4.424;2023-12-22T05:09:35;22.33;;;4.32;;
23470;SDS011;11908;50.806;4.424;2023-12-22T05:12:02;29.10;;;4.97;;
23470;SDS011;11908;50.806;4.424;2023-12-22T05:14:28;23.42;;;4.60;;
23470;SDS011;11908;50.806;4.424;2023-12-22T05:16:53;34.03;;;5.25;;
23470;SDS011;11908;50.806;4.424;2023-12-22T05:19:21;28.85;;;5.53;;
23470;SDS011;11908;50.806;4.424;2023-12-22T05:21:46;29.30;;;4.47;;
23470;SDS011;11908;50.806;4.424;2023-12-22T05:24:14;28.60;;;5.43;;
23470;SDS011;11908;50.806;4.424;2023-12-22T05:26:40;24.92;;;5.30;;
23470;SDS011;11908;50.806;4.424;2023-12-22T05:29:05;39.88;;;6.10;;
23470;SDS011;11908;50.806;4.424;2023-12-22T05:31:33;31.02;;;5.65;;
23470;SDS011;11908;50.806;4.424;2023-12-22T05:33:59;30.55;;;5.00;;
23470;SDS011;11908;50.806;4.424;2023-12-22T05:36:25;29.35;;;5.45;;
23470;SDS011;11908;50.806;4.424;2023-12-22T05:38:51;35.85;;;6.35;;
23470;SDS011;11908;50.806;4.424;2023-12-22T05:41:16;28.52;;;5.13;;
23470;SDS011;11908;50.806;4.424;2023-12-22T05:43:42;28.55;;;5.63;;
23470;SDS011;11908;50.806;4.424;2023-12-22T05:46:08;28.20;;;5.10;;
23470;SDS011;11908;50.806;4.424;2023-12-22T05:48:34;27.83;;;5.60;;
23470;SDS011;11908;50.806;4.424;2023-12-22T05:51:00;26.27;;;5.03;;
23470;SDS011;11908;50.806;4.424;2023-12-22T05:53:28;26.73;;;5.55;;
23470;SDS011;11908;50.806;4.424;2023-12-22T05:55:54;25.30;;;5.00;;
23470;SDS011;11908;50.806;4.424;2023-12-22T05:58:19;31.90;;;5.45;;
23470;SDS011;11908;50.806;4.424;2023-12-22T06:00:45;39.42;;;7.18;;
23470;SDS011;11908;50.806;4.424;2023-12-22T06:03:11;23.77;;;5.00;;
23470;SDS011;11908;50.806;4.424;2023-12-22T06:05:36;27.42;;;5.28;;
23470;SDS011;11908;50.806;4.424;2023-12-22T06:08:02;29.05;;;4.90;;
23470;SDS011;11908;50.806;4.424;2023-12-22T06:10:28;26.35;;;4.68;;
23470;SDS011;11908;50.806;4.424;2023-12-22T06:12:54;23.88;;;4.65;;
23470;SDS011;11908;50.806;4.424;2023-12-22T06:15:19;28.48;;;4.63;;
23470;SDS011;11908;50.806;4.424;2023-12-22T06:17:45;23.15;;;4.25;;
23470;SDS011;11908;50.806;4.424;2023-12-22T06:20:10;19.85;;;4.18;;
23470;SDS011;11908;50.806;4.424;2023-12-22T06:22:36;28.23;;;4.97;;
23470;SDS011;11908;50.806;4.424;2023-12-22T06:25:02;23.17;;;5.05;;
23470;SDS011;11908;50.806;4.424;2023-12-22T06:27:32;21.98;;;3.63;;
23470;SDS011;11908;50.806;4.424;2023-12-22T06:29:58;29.52;;;3.92;;
23470;SDS011;11908;50.806;4.424;2023-12-22T06:32:24;19.83;;;4.57;;
23470;SDS011;11908;50.806;4.424;2023-12-22T06:34:50;19.52;;;3.67;;
23470;SDS011;11908;50.806;4.424;2023-12-22T06:37:15;16.85;;;3.63;;
23470;SDS011;11908;50.806;4.424;2023-12-22T06:39:41;20.17;;;3.53;;
23470;SDS011;11908;50.806;4.424;2023-12-22T06:42:07;20.05;;;3.95;;
23470;SDS011;11908;50.806;4.424;2023-12-22T06:44:36;17.98;;;3.38;;
23470;SDS011;11908;50.806;4.424;2023-12-22T06:47:02;17.38;;;3.33;;
23470;SDS011;11908;50.806;4.424;2023-12-22T06:49:28;16.83;;;3.08;;
23470;SDS011;11908;50.806;4.424;2023-12-22T06:51:54;15.70;;;3.15;;
23470;SDS011;11908;50.806;4.424;2023-12-22T06:54:19;12.45;;;2.70;;
23470;SDS011;11908;50.806;4.424;2023-12-22T06:56:45;23.42;;;3.00;;
23470;SDS011;11908;50.806;4.424;2023-12-22T06:59:10;16.80;;;2.83;;
23470;SDS011;11908;50.806;4.424;2023-12-22T07:01:37;12.45;;;2.83;;
23470;SDS011;11908;50.806;4.424;2023-12-22T07:04:03;14.52;;;2.63;;
23470;SDS011;11908;50.806;4.424;2023-12-22T07:06:30;14.48;;;2.95;;
23470;SDS011;11908;50.806;4.424;2023-12-22T07:11:49;12.30;;;2.08;;
23470;SDS011;11908;50.806;4.424;2023-12-22T07:14:15;8.25;;;2.03;;
23470;SDS011;11908;50.806;4.424;2023-12-22T07:16:41;6.97;;;2.05;;
23470;SDS011;11908;50.806;4.424;2023-12-22T07:19:07;13.00;;;2.90;;
23470;SDS011;11908;50.806;4.424;2023-12-22T07:21:33;9.43;;;2.42;;
23470;SDS011;11908;50.806;4.424;2023-12-22T07:23:59;10.13;;;2.00;;
23470;SDS011;11908;50.806;4.424;2023-12-22T07:26:25;12.80;;;2.63;;
23470;SDS011;11908;50.806;4.424;2023-12-22T07:28:52;12.55;;;2.10;;
23470;SDS011;11908;50.806;4.424;2023-12-22T07:31:20;8.63;;;2.17;;
23470;SDS011;11908;50.806;4.424;2023-12-22T07:33:46;8.73;;;1.75;;
23470;SDS011;11908;50.806;4.424;2023-12-22T07:36:12;13.63;;;2.20;;
23470;SDS011;11908;50.806;4.424;2023-12-22T07:38:38;14.88;;;2.33;;
23470;SDS011;11908;50.806;4.424;2023-12-22T07:41:07;8.25;;;1.75;;
23470;SDS011;11908;50.806;4.424;2023-12-22T07:43:33;9.82;;;2.08;;
23470;SDS011;11908;50.806;4.424;2023-12-22T07:45:59;8.85;;;1.75;;
23470;SDS011;11908;50.806;4.424;2023-12-22T07:48:24;9.30;;;1.75;;
23470;SDS011;11908;50.806;4.424;2023-12-22T07:50:50;7.45;;;1.77;;
23470;SDS011;11908;50.806;4.424;2023-12-22T07:53:16;6.95;;;1.95;;
23470;SDS011;11908;50.806;4.424;2023-12-22T07:55:42;7.88;;;1.40;;
23470;SDS011;11908;50.806;4.424;2023-12-22T07:58:08;6.95;;;1.70;;
23470;SDS011;11908;50.806;4.424;2023-12-22T08:00:34;10.50;;;1.67;;
23470;SDS011;11908;50.806;4.424;2023-12-22T08:03:01;5.90;;;1.58;;
23470;SDS011;11908;50.806;4.424;2023-12-22T08:05:26;6.57;;;1.48;;
23470;SDS011;11908;50.806;4.424;2023-12-22T08:07:52;6.95;;;1.30;;
23470;SDS011;11908;50.806;4.424;2023-12-22T08:10:18;5.53;;;1.25;;
23470;SDS011;11908;50.806;4.424;2023-12-22T08:12:44;4.50;;;1.23;;
23470;SDS011;11908;50.806;4.424;2023-12-22T08:15:09;3.10;;;1.10;;
23470;SDS011;11908;50.806;4.424;2023-12-22T08:17:35;3.42;;;1.02;;
23470;SDS011;11908;50.806;4.424;2023-12-22T08:20:03;5.35;;;1.27;;
23470;SDS011;11908;50.806;4.424;2023-12-22T08:22:29;4.72;;;1.33;;
23470;SDS011;11908;50.806;4.424;2023-12-22T08:24:54;6.18;;;1.65;;
23470;SDS011;11908;50.806;4.424;2023-12-22T08:27:20;3.83;;;1.38;;
23470;SDS011;11908;50.806;4.424;2023-12-22T08:29:46;3.22;;;1.30;;
23470;SDS011;11908;50.806;4.424;2023-12-22T08:32:11;3.80;;;1.50;;
23470;SDS011;11908;50.806;4.424;2023-12-22T08:34:37;3.72;;;1.67;;
23470;SDS011;11908;50.806;4.424;2023-12-22T08:37:03;8.77;;;2.40;;
23470;SDS011;11908;50.806;4.424;2023-12-22T08:39:29;5.93;;;2.10;;
23470;SDS011;11908;50.806;4.424;2023-12-22T08:41:54;7.97;;;2.22;;
23470;SDS011;11908;50.806;4.424;2023-12-22T08:44:20;4.50;;;2.00;;
23470;SDS011;11908;50.806;4.424;2023-12-22T08:46:46;3.00;;;1.92;;
23470;SDS011;11908;50.806;4.424;2023-12-22T08:49:11;7.60;;;2.60;;
23470;SDS011;11908;50.806;4.424;2023-12-22T08:51:37;6.55;;;2.42;;
23470;SDS011;11908;50.806;4.424;2023-12-22T08:54:03;6.00;;;2.67;;
23470;SDS011;11908;50.806;4.424;2023-12-22T08:56:29;7.88;;;2.58;;
23470;SDS011;11908;50.806;4.424;2023-12-22T08:58:55;8.27;;;2.65;;
23470;SDS011;11908;50.806;4.424;2023-12-22T09:01:23;5.70;;;2.85;;
23470;SDS011;11908;50.806;4.424;2023-12-22T09:03:50;10.98;;;3.50;;
23470;SDS011;11908;50.806;4.424;2023-12-22T09:06:18;6.70;;;3.05;;
23470;SDS011;11908;50.806;4.424;2023-12-22T09:08:44;7.10;;;2.95;;
23470;SDS011;11908;50.806;4.424;2023-12-22T09:11:15;5.55;;;3.05;;
23470;SDS011;11908;50.806;4.424;2023-12-22T09:13:42;8.82;;;4.28;;
23470;SDS011;11908;50.806;4.424;2023-12-22T09:16:08;11.90;;;3.30;;
23470;SDS011;11908;50.806;4.424;2023-12-22T09:18:34;11.50;;;3.10;;
23470;SDS011;11908;50.806;4.424;2023-12-22T09:21:00;8.80;;;4.50;;
23470;SDS011;11908;50.806;4.424;2023-12-22T09:23:27;12.75;;;3.45;;
23470;SDS011;11908;50.806;4.424;2023-12-22T09:25:53;7.63;;;2.55;;
23470;SDS011;11908;50.806;4.424;2023-12-22T09:28:19;7.55;;;2.90;;
23470;SDS011;11908;50.806;4.424;2023-12-22T09:30:45;5.88;;;2.53;;
23470;SDS011;11908;50.806;4.424;2023-12-22T09:33:10;13.00;;;2.95;;
23470;SDS011;11908;50.806;4.424;2023-12-22T09:35:37;8.75;;;2.40;;
23470;SDS011;11908;50.806;4.424;2023-12-22T09:38:06;7.25;;;2.78;;
23470;SDS011;11908;50.806;4.424;2023-12-22T09:40:34;9.13;;;2.50;;
23470;SDS011;11908;50.806;4.424;2023-12-22T09:43:01;6.88;;;2.20;;
23470;SDS011;11908;50.806;4.424;2023-12-22T09:45:30;10.10;;;2.47;;
23470;SDS011;11908;50.806;4.424;2023-12-22T09:47:58;5.60;;;1.90;;
23470;SDS011;11908;50.806;4.424;2023-12-22T09:50:28;6.18;;;2.10;;
23470;SDS011;11908;50.806;4.424;2023-12-22T09:52:55;5.15;;;2.00;;
23470;SDS011;11908;50.806;4.424;2023-12-22T09:55:21;6.85;;;1.90;;
23470;SDS011;11908;50.806;4.424;2023-12-22T09:57:48;5.50;;;1.88;;
23470;SDS011;11908;50.806;4.424;2023-12-22T10:00:15;6.28;;;1.98;;
23470;SDS011;11908;50.806;4.424;2023-12-22T10:02:41;4.47;;;1.90;;
23470;SDS011;11908;50.806;4.424;2023-12-22T10:05:10;6.47;;;2.10;;
23470;SDS011;11908;50.806;4.424;2023-12-22T10:07:38;3.65;;;1.80;;
23470;SDS011;11908;50.806;4.424;2023-12-22T10:10:05;7.03;;;2.30;;
23470;SDS011;11908;50.806;4.424;2023-12-22T10:12:33;9.07;;;2.00;;
23470;SDS011;11908;50.806;4.424;2023-12-22T10:14:59;5.63;;;2.20;;
23470;SDS011;11908;50.806;4.424;2023-12-22T10:17:26;5.15;;;2.10;;
23470;SDS011;11908;50.806;4.424;2023-12-22T10:19:52;7.13;;;1.92;;
23470;SDS011;11908;50.806;4.424;2023-12-22T10:22:18;5.82;;;1.92;;
23470;SDS011;11908;50.806;4.424;2023-12-22T10:24:44;6.03;;;1.50;;
23470;SDS011;11908;50.806;4.424;2023-12-22T10:27:17;5.40;;;1.80;;
23470;SDS011;11908;50.806;4.424;2023-12-22T10:29:50;4.72;;;1.50;;
23470;SDS011;11908;50.806;4.424;2023-12-22T10:32:19;5.50;;;1.50;;
23470;SDS011;11908;50.806;4.424;2023-12-22T10:34:46;6.13;;;1.70;;
23470;SDS011;11908;50.806;4.424;2023-12-22T10:37:12;8.40;;;1.80;;
23470;SDS011;11908;50.806;4.424;2023-12-22T10:39:38;3.17;;;1.70;;
23470;SDS011;11908;50.806;4.424;2023-12-22T10:42:03;7.47;;;1.92;;
23470;SDS011;11908;50.806;4.424;2023-12-22T10:44:29;6.22;;;1.75;;
23470;SDS011;11908;50.806;4.424;2023-12-22T10:46:55;3.08;;;1.30;;
23470;SDS011;11908;50.806;4.424;2023-12-22T10:49:22;5.78;;;1.70;;
23470;SDS011;11908;50.806;4.424;2023-12-22T10:51:48;7.47;;;1.20;;
23470;SDS011;11908;50.806;4.424;2023-12-22T10:54:15;5.07;;;1.52;;
23470;SDS011;11908;50.806;4.424;2023-12-22T10:56:41;8.18;;;1.70;;
23470;SDS011;11908;50.806;4.424;2023-12-22T10:59:08;4.13;;;1.45;;
23470;SDS011;11908;50.806;4.424;2023-12-22T11:01:35;5.05;;;1.67;;
23470;SDS011;11908;50.806;4.424;2023-12-22T11:04:08;4.53;;;1.20;;
23470;SDS011;11908;50.806;4.424;2023-12-22T11:06:38;4.10;;;1.50;;
23470;SDS011;11908;50.806;4.424;2023-12-22T11:09:08;6.13;;;1.70;;
23470;SDS011;11908;50.806;4.424;2023-12-22T11:11:38;3.80;;;1.50;;
23470;SDS011;11908;50.806;4.424;2023-12-22T11:14:05;1.75;;;1.40;;
23470;SDS011;11908;50.806;4.424;2023-12-22T11:16:35;5.38;;;2.22;;
23470;SDS011;11908;50.806;4.424;2023-12-22T11:19:04;3.53;;;1.92;;
23470;SDS011;11908;50.806;4.424;2023-12-22T11:21:30;6.10;;;1.60;;
23470;SDS011;11908;50.806;4.424;2023-12-22T11:23:56;5.18;;;2.00;;
23470;SDS011;11908;50.806;4.424;2023-12-22T11:26:22;4.90;;;1.85;;
23470;SDS011;11908;50.806;4.424;2023-12-22T11:28:49;5.45;;;1.98;;
23470;SDS011;11908;50.806;4.424;2023-12-22T11:31:16;2.45;;;1.58;;
23470;SDS011;11908;50.806;4.424;2023-12-22T11:33:44;4.57;;;1.70;;
23470;SDS011;11908;50.806;4.424;2023-12-22T11:36:11;6.40;;;1.73;;
23470;SDS011;11908;50.806;4.424;2023-12-22T11:38:39;2.90;;;1.45;;
23470;SDS011;11908;50.806;4.424;2023-12-22T11:41:16;7.25;;;1.73;;
23470;SDS011;11908;50.806;4.424;2023-12-22T11:43:49;2.85;;;1.50;;
23470;SDS011;11908;50.806;4.424;2023-12-22T11:46:16;7.60;;;1.45;;
23470;SDS011;11908;50.806;4.424;2023-12-22T11:48:48;7.28;;;1.77;;
23470;SDS011;11908;50.806;4.424;2023-12-22T11:51:14;3.00;;;1.30;;
23470;SDS011;11908;50.806;4.424;2023-12-22T11:53:41;6.18;;;1.83;;
23470;SDS011;11908;50.806;4.424;2023-12-22T11:56:08;3.95;;;1.73;;
23470;SDS011;11908;50.806;4.424;2023-12-22T11:58:45;3.88;;;1.75;;
23470;SDS011;11908;50.806;4.424;2023-12-22T12:01:20;3.50;;;1.58;;
23470;SDS011;11908;50.806;4.424;2023-12-22T12:03:49;2.38;;;1.45;;
23470;SDS011;11908;50.806;4.424;2023-12-22T12:08:54;3.35;;;1.70;;
23470;SDS011;11908;50.806;4.424;2023-12-22T12:11:21;3.75;;;2.00;;
23470;SDS011;11908;50.806;4.424;2023-12-22T12:13:47;5.65;;;1.70;;
23470;SDS011;11908;50.806;4.424;2023-12-22T12:16:14;4.18;;;1.65;;
23470;SDS011;11908;50.806;4.424;2023-12-22T12:18:46;4.43;;;1.25;;
23470;SDS011;11908;50.806;4.424;2023-12-22T12:21:12;5.43;;;1.58;;
23470;SDS011;11908;50.806;4.424;2023-12-22T12:23:38;5.95;;;1.10;;
23470;SDS011;11908;50.806;4.424;2023-12-22T12:26:06;3.58;;;1.27;;
23470;SDS011;11908;50.806;4.424;2023-12-22T12:28:33;5.30;;;1.30;;
23470;SDS011;11908;50.806;4.424;2023-12-22T12:31:02;5.15;;;1.58;;
23470;SDS011;11908;50.806;4.424;2023-12-22T12:33:29;5.07;;;1.13;;
23470;SDS011;11908;50.806;4.424;2023-12-22T12:35:56;5.55;;;1.10;;
23470;SDS011;11908;50.806;4.424;2023-12-22T12:38:23;5.68;;;1.08;;
23470;SDS011;11908;50.806;4.424;2023-12-22T12:40:59;2.63;;;0.80;;
23470;SDS011;11908;50.806;4.424;2023-12-22T12:43:28;8.35;;;1.55;;
23470;SDS011;11908;50.806;4.424;2023-12-22T12:45:54;2.30;;;0.90;;
23470;SDS011;11908;50.806;4.424;2023-12-22T12:48:20;4.85;;;1.60;;
23470;SDS011;11908;50.806;4.424;2023-12-22T12:50:47;6.38;;;1.35;;
23470;SDS011;11908;50.806;4.424;2023-12-22T12:53:13;5.88;;;1.38;;
23470;SDS011;11908;50.806;4.424;2023-12-22T12:55:38;5.63;;;1.10;;
23470;SDS011;11908;50.806;4.424;2023-12-22T12:58:04;5.13;;;0.75;;
23470;SDS011;11908;50.806;4.424;2023-12-22T13:00:32;2.75;;;1.02;;
23470;SDS011;11908;50.806;4.424;2023-12-22T13:03:04;6.03;;;1.15;;
23470;SDS011;11908;50.806;4.424;2023-12-22T13:05:31;5.90;;;1.30;;
23470;SDS011;11908;50.806;4.424;2023-12-22T13:08:10;4.80;;;1.20;;
23470;SDS011;11908;50.806;4.424;2023-12-22T13:10:36;7.78;;;1.52;;
23470;SDS011;11908;50.806;4.424;2023-12-22T13:13:03;10.15;;;1.50;;
23470;SDS011;11908;50.806;4.424;2023-12-22T13:15:29;3.00;;;1.02;;
23470;SDS011;11908;50.806;4.424;2023-12-22T13:17:55;6.30;;;1.13;;
23470;SDS011;11908;50.806;4.424;2023-12-22T13:20:22;5.65;;;1.30;;
23470;SDS011;11908;50.806;4.424;2023-12-22T13:22:48;5.90;;;1.25;;
23470;SDS011;11908;50.806;4.424;2023-12-22T13:25:15;7.97;;;1.55;;
23470;SDS011;11908;50.806;4.424;2023-12-22T13:27:45;8.13;;;1.13;;
23470;SDS011;11908;50.806;4.424;2023-12-22T13:30:12;6.40;;;1.13;;
23470;SDS011;11908;50.806;4.424;2023-12-22T13:32:38;4.30;;;1.55;;
23470;SDS011;11908;50.806;4.424;2023-12-22T13:35:04;6.60;;;0.98;;
23470;SDS011;11908;50.806;4.424;2023-12-22T13:37:30;7.90;;;1.27;;
23470;SDS011;11908;50.806;4.424;2023-12-22T13:39:56;5.72;;;1.20;;
23470;SDS011;11908;50.806;4.424;2023-12-22T13:42:23;5.70;;;1.23;;
23470;SDS011;11908;50.806;4.424;2023-12-22T13:44:49;4.20;;;1.08;;
23470;SDS011;11908;50.806;4.424;2023-12-22T13:47:17;6.55;;;1.25;;
23470;SDS011;11908;50.806;4.424;2023-12-22T13:49:43;6.65;;;1.10;;
23470;SDS011;11908;50.806;4.424;2023-12-22T13:52:31;8.18;;;1.38;;
23470;SDS011;11908;50.806;4.424;2023-12-22T13:54:59;7.97;;;1.13;;
23470;SDS011;11908;50.806;4.424;2023-12-22T13:57:27;4.05;;;1.10;;
23470;SDS011;11908;50.806;4.424;2023-12-22T13:59:52;5.68;;;1.30;;
23470;SDS011;11908;50.806;4.424;2023-12-22T14:02:21;5.22;;;1.67;;
23470;SDS011;11908;50.806;4.424;2023-12-22T14:04:48;7.32;;;0.98;;
23470;SDS011;11908;50.806;4.424;2023-12-22T14:07:15;2.92;;;1.25;;
23470;SDS011;11908;50.806;4.424;2023-12-22T14:09:40;3.95;;;1.20;;
23470;SDS011;11908;50.806;4.424;2023-12-22T14:12:06;5.43;;;1.00;;
23470;SDS011;11908;50.806;4.424;2023-12-22T14:14:32;8.50;;;1.15;;
23470;SDS011;11908;50.806;4.424;2023-12-22T14:16:57;4.28;;;0.77;;
23470;SDS011;11908;50.806;4.424;2023-12-22T14:19:23;4.35;;;1.13;;
23470;SDS011;11908;50.806;4.424;2023-12-22T14:21:50;4.63;;;1.30;;
23470;SDS011;11908;50.806;4.424;2023-12-22T14:24:15;2.20;;;0.73;;
23470;SDS011;11908;50.806;4.424;2023-12-22T14:26:53;8.57;;;1.10;;
23470;SDS011;11908;50.806;4.424;2023-12-22T14:29:22;4.50;;;0.73;;
23470;SDS011;11908;50.806;4.424;2023-12-22T14:31:50;1.48;;;1.10;;
23470;SDS011;11908;50.806;4.424;2023-12-22T14:34:17;6.72;;;1.45;;
23470;SDS011;11908;50.806;4.424;2023-12-22T14:36:43;6.22;;;1.42;;
23470;SDS011;11908;50.806;4.424;2023-12-22T14:39:09;3.55;;;0.98;;
23470;SDS011;11908;50.806;4.424;2023-12-22T14:41:41;5.88;;;1.20;;
23470;SDS011;11908;50.806;4.424;2023-12-22T14:44:07;4.75;;;0.80;;